sensor_id;sensor_type;location;lat;lon;timestamp;temperature;humidity
32698;DHT22;19087;51.062;3.754;2023-03-01T00:02:12;3.50;99.90
32698;DHT22;19087;51.062;3.754;2023-03-01T00:04:37;3.50;99.90
32698;DHT22;19087;51.062;3.754;2023-03-01T00:07:03;3.50;99.90
32698;DHT22;19087;51.062;3.754;2023-03-01T00:09:28;3.50;99.90
32698;DHT22;19087;51.062;3.754;2023-03-01T00:11:54;3.30;99.90
32698;DHT22;19087;51.062;3.754;2023-03-01T00:14:21;3.50;99.90
32698;DHT22;19087;51.062;3.754;2023-03-01T00:16:47;3.40;99.90
32698;DHT22;19087;51.062;3.754;2023-03-01T00:19:15;3.40;99.90
32698;DHT22;19087;51.062;3.754;2023-03-01T00:21:41;3.60;99.90
32698;DHT22;19087;51.062;3.754;2023-03-01T00:24:08;3.50;99.90
32698;DHT22;19087;51.062;3.754;2023-03-01T00:26:33;3.50;99.90
32698;DHT22;19087;51.062;3.754;2023-03-01T00:29:00;3.50;99.90
32698;DHT22;19087;51.062;3.754;2023-03-01T00:31:30;3.50;99.90
32698;DHT22;19087;51.062;3.754;2023-03-01T00:33:58;3.40;99.90
32698;DHT22;19087;51.062;3.754;2023-03-01T00:36:29;3.20;99.90
32698;DHT22;19087;51.062;3.754;2023-03-01T00:38:56;3.20;99.90
32698;DHT22;19087;51.062;3.754;2023-03-01T00:41:22;3.10;99.90
32698;DHT22;19087;51.062;3.754;2023-03-01T00:43:50;3.10;99.90
32698;DHT22;19087;51.062;3.754;2023-03-01T00:46:25;3.20;99.90
32698;DHT22;19087;51.062;3.754;2023-03-01T00:48:50;3.20;99.90
32698;DHT22;19087;51.062;3.754;2023-03-01T00:51:21;3.30;99.90
32698;DHT22;19087;51.062;3.754;2023-03-01T00:53:50;3.30;99.90
32698;DHT22;19087;51.062;3.754;2023-03-01T00:56:16;3.40;99.90
32698;DHT22;19087;51.062;3.754;2023-03-01T00:58:42;3.40;99.90
32698;DHT22;19087;51.062;3.754;2023-03-01T01:03:44;3.50;99.90
32698;DHT22;19087;51.062;3.754;2023-03-01T01:06:14;3.30;99.90
32698;DHT22;19087;51.062;3.754;2023-03-01T01:08:40;3.30;99.90
32698;DHT22;19087;51.062;3.754;2023-03-01T01:11:09;3.10;99.90
32698;DHT22;19087;51.062;3.754;2023-03-01T01:13:34;2.90;99.90
32698;DHT22;19087;51.062;3.754;2023-03-01T01:16:01;2.90;99.90
32698;DHT22;19087;51.062;3.754;2023-03-01T01:18:27;3.10;99.90
32698;DHT22;19087;51.062;3.754;2023-03-01T01:20:52;3.20;99.90
32698;DHT22;19087;51.062;3.754;2023-03-01T01:23:18;3.10;99.90
32698;DHT22;19087;51.062;3.754;2023-03-01T01:25:45;2.90;99.90
32698;DHT22;19087;51.062;3.754;2023-03-01T01:28:11;2.80;99.90
32698;DHT22;19087;51.062;3.754;2023-03-01T01:30:37;2.90;99.90
32698;DHT22;19087;51.062;3.754;2023-03-01T01:33:03;2.90;99.90
32698;DHT22;19087;51.062;3.754;2023-03-01T01:35:28;3.00;99.90
32698;DHT22;19087;51.062;3.754;2023-03-01T01:37:54;3.00;99.90
32698;DHT22;19087;51.062;3.754;2023-03-01T01:40:21;2.90;99.90
32698;DHT22;19087;51.062;3.754;2023-03-01T01:42:47;2.80;99.90
32698;DHT22;19087;51.062;3.754;2023-03-01T01:45:34;2.90;99.90
32698;DHT22;19087;51.062;3.754;2023-03-01T01:48:05;2.90;99.90
32698;DHT22;19087;51.062;3.754;2023-03-01T01:50:35;2.80;99.90
32698;DHT22;19087;51.062;3.754;2023-03-01T01:53:10;2.70;99.90
32698;DHT22;19087;51.062;3.754;2023-03-01T01:55:43;2.80;99.90
32698;DHT22;19087;51.062;3.754;2023-03-01T01:58:18;2.70;99.90
32698;DHT22;19087;51.062;3.754;2023-03-01T02:00:47;2.80;99.90
32698;DHT22;19087;51.062;3.754;2023-03-01T02:03:17;2.80;99.90
32698;DHT22;19087;51.062;3.754;2023-03-01T02:06:04;2.70;99.90
32698;DHT22;19087;51.062;3.754;2023-03-01T02:08:34;2.80;99.90
32698;DHT22;19087;51.062;3.754;2023-03-01T02:11:02;2.90;99.90
32698;DHT22;19087;51.062;3.754;2023-03-01T02:13:31;2.80;99.90
32698;DHT22;19087;51.062;3.754;2023-03-01T02:15:57;2.80;99.90
32698;DHT22;19087;51.062;3.754;2023-03-01T02:18:24;2.70;99.90
32698;DHT22;19087;51.062;3.754;2023-03-01T02:21:21;2.70;99.90
32698;DHT22;19087;51.062;3.754;2023-03-01T02:23:53;2.80;99.90
32698;DHT22;19087;51.062;3.754;2023-03-01T02:28:53;2.70;99.90
32698;DHT22;19087;51.062;3.754;2023-03-01T02:31:20;2.70;99.90
32698;DHT22;19087;51.062;3.754;2023-03-01T02:34:07;2.70;99.90
32698;DHT22;19087;51.062;3.754;2023-03-01T02:36:49;2.80;99.90
32698;DHT22;19087;51.062;3.754;2023-03-01T02:39:37;2.80;99.90
32698;DHT22;19087;51.062;3.754;2023-03-01T02:42:11;2.80;99.90
32698;DHT22;19087;51.062;3.754;2023-03-01T02:44:37;2.60;99.90
32698;DHT22;19087;51.062;3.754;2023-03-01T02:47:03;2.70;99.90
32698;DHT22;19087;51.062;3.754;2023-03-01T02:49:35;2.50;99.90
32698;DHT22;19087;51.062;3.754;2023-03-01T02:54:51;2.40;99.90
32698;DHT22;19087;51.062;3.754;2023-03-01T02:57:20;2.30;99.90
32698;DHT22;19087;51.062;3.754;2023-03-01T02:59:48;2.30;99.90
32698;DHT22;19087;51.062;3.754;2023-03-01T03:02:34;2.20;99.90
32698;DHT22;19087;51.062;3.754;2023-03-01T03:05:16;2.30;99.90
32698;DHT22;19087;51.062;3.754;2023-03-01T03:07:45;2.20;99.90
32698;DHT22;19087;51.062;3.754;2023-03-01T03:10:15;2.40;99.90
32698;DHT22;19087;51.062;3.754;2023-03-01T03:12:42;2.50;99.90
32698;DHT22;19087;51.062;3.754;2023-03-01T03:15:10;2.40;99.90
32698;DHT22;19087;51.062;3.754;2023-03-01T03:17:40;2.50;99.90
32698;DHT22;19087;51.062;3.754;2023-03-01T03:20:10;2.40;99.90
32698;DHT22;19087;51.062;3.754;2023-03-01T03:22:38;2.40;99.90
32698;DHT22;19087;51.062;3.754;2023-03-01T03:25:04;2.30;99.90
32698;DHT22;19087;51.062;3.754;2023-03-01T03:27:30;2.30;99.90
32698;DHT22;19087;51.062;3.754;2023-03-01T03:29:57;2.30;99.90
32698;DHT22;19087;51.062;3.754;2023-03-01T03:32:23;2.40;99.90
32698;DHT22;19087;51.062;3.754;2023-03-01T03:34:49;2.40;99.90
32698;DHT22;19087;51.062;3.754;2023-03-01T03:37:15;2.30;99.90
32698;DHT22;19087;51.062;3.754;2023-03-01T03:39:59;2.30;99.90
32698;DHT22;19087;51.062;3.754;2023-03-01T03:42:25;2.30;99.90
32698;DHT22;19087;51.062;3.754;2023-03-01T03:44:50;2.40;99.90
32698;DHT22;19087;51.062;3.754;2023-03-01T03:47:18;2.40;99.90
32698;DHT22;19087;51.062;3.754;2023-03-01T03:49:44;2.30;99.90
32698;DHT22;19087;51.062;3.754;2023-03-01T03:52:09;2.20;99.90
32698;DHT22;19087;51.062;3.754;2023-03-01T03:54:40;2.20;99.90
32698;DHT22;19087;51.062;3.754;2023-03-01T03:57:07;2.10;99.90
32698;DHT22;19087;51.062;3.754;2023-03-01T03:59:32;2.10;99.90
32698;DHT22;19087;51.062;3.754;2023-03-01T04:01:59;2.20;99.90
32698;DHT22;19087;51.062;3.754;2023-03-01T04:04:25;2.20;99.90
32698;DHT22;19087;51.062;3.754;2023-03-01T04:06:51;2.10;99.90
32698;DHT22;19087;51.062;3.754;2023-03-01T04:09:17;2.20;99.90
32698;DHT22;19087;51.062;3.754;2023-03-01T04:11:42;2.30;99.90
32698;DHT22;19087;51.062;3.754;2023-03-01T04:14:08;2.20;99.90
32698;DHT22;19087;51.062;3.754;2023-03-01T04:16:35;2.10;99.90
32698;DHT22;19087;51.062;3.754;2023-03-01T04:19:00;2.00;99.90
32698;DHT22;19087;51.062;3.754;2023-03-01T04:21:26;2.20;99.90
32698;DHT22;19087;51.062;3.754;2023-03-01T04:23:51;2.10;99.90
32698;DHT22;19087;51.062;3.754;2023-03-01T04:26:20;2.10;99.90
32698;DHT22;19087;51.062;3.754;2023-03-01T04:28:47;2.00;99.90
32698;DHT22;19087;51.062;3.754;2023-03-01T04:31:17;2.10;99.90
32698;DHT22;19087;51.062;3.754;2023-03-01T04:33:54;2.00;99.90
32698;DHT22;19087;51.062;3.754;2023-03-01T04:36:24;2.10;99.90
32698;DHT22;19087;51.062;3.754;2023-03-01T04:38:50;2.00;99.90
32698;DHT22;19087;51.062;3.754;2023-03-01T04:41:19;1.90;99.90
32698;DHT22;19087;51.062;3.754;2023-03-01T04:43:45;1.90;99.90
32698;DHT22;19087;51.062;3.754;2023-03-01T04:46:13;1.90;99.90
32698;DHT22;19087;51.062;3.754;2023-03-01T04:48:41;2.00;99.90
32698;DHT22;19087;51.062;3.754;2023-03-01T04:51:07;2.00;99.90
32698;DHT22;19087;51.062;3.754;2023-03-01T04:53:34;1.90;99.90
32698;DHT22;19087;51.062;3.754;2023-03-01T04:56:02;1.90;99.90
32698;DHT22;19087;51.062;3.754;2023-03-01T04:58:28;1.90;99.90
32698;DHT22;19087;51.062;3.754;2023-03-01T05:00:54;2.00;99.90
32698;DHT22;19087;51.062;3.754;2023-03-01T05:03:21;2.00;99.90
32698;DHT22;19087;51.062;3.754;2023-03-01T05:05:48;1.90;99.90
32698;DHT22;19087;51.062;3.754;2023-03-01T05:08:15;1.90;99.90
32698;DHT22;19087;51.062;3.754;2023-03-01T05:10:52;1.90;99.90
32698;DHT22;19087;51.062;3.754;2023-03-01T05:13:20;2.00;99.90
32698;DHT22;19087;51.062;3.754;2023-03-01T05:18:20;1.90;99.90
32698;DHT22;19087;51.062;3.754;2023-03-01T05:20:46;1.90;99.90
32698;DHT22;19087;51.062;3.754;2023-03-01T05:23:12;1.80;99.90
32698;DHT22;19087;51.062;3.754;2023-03-01T05:25:38;1.70;99.90
32698;DHT22;19087;51.062;3.754;2023-03-01T05:28:08;1.80;99.90
32698;DHT22;19087;51.062;3.754;2023-03-01T05:30:36;1.80;99.90
32698;DHT22;19087;51.062;3.754;2023-03-01T05:33:01;1.90;99.90
32698;DHT22;19087;51.062;3.754;2023-03-01T05:35:27;1.90;99.90
32698;DHT22;19087;51.062;3.754;2023-03-01T05:37:57;2.00;99.90
32698;DHT22;19087;51.062;3.754;2023-03-01T05:40:23;1.90;99.90
32698;DHT22;19087;51.062;3.754;2023-03-01T05:42:53;1.90;99.90
32698;DHT22;19087;51.062;3.754;2023-03-01T05:45:20;1.90;99.90
32698;DHT22;19087;51.062;3.754;2023-03-01T05:47:49;1.70;99.90
32698;DHT22;19087;51.062;3.754;2023-03-01T05:50:22;1.70;99.90
32698;DHT22;19087;51.062;3.754;2023-03-01T05:53:23;1.70;99.90
32698;DHT22;19087;51.062;3.754;2023-03-01T05:55:42;1.80;99.90
32698;DHT22;19087;51.062;3.754;2023-03-01T05:58:14;1.80;99.90
32698;DHT22;19087;51.062;3.754;2023-03-01T06:00:43;1.80;99.90
32698;DHT22;19087;51.062;3.754;2023-03-01T06:03:12;1.70;99.90
32698;DHT22;19087;51.062;3.754;2023-03-01T06:05:39;1.60;99.90
32698;DHT22;19087;51.062;3.754;2023-03-01T06:08:06;1.60;99.90
32698;DHT22;19087;51.062;3.754;2023-03-01T06:10:31;1.60;99.90
32698;DHT22;19087;51.062;3.754;2023-03-01T06:12:57;1.50;99.90
32698;DHT22;19087;51.062;3.754;2023-03-01T06:15:24;1.60;99.90
32698;DHT22;19087;51.062;3.754;2023-03-01T06:17:50;1.80;99.90
32698;DHT22;19087;51.062;3.754;2023-03-01T06:20:19;1.60;99.90
32698;DHT22;19087;51.062;3.754;2023-03-01T06:22:48;1.60;99.90
32698;DHT22;19087;51.062;3.754;2023-03-01T06:25:19;1.50;99.90
32698;DHT22;19087;51.062;3.754;2023-03-01T06:27:47;1.30;99.90
32698;DHT22;19087;51.062;3.754;2023-03-01T06:30:16;1.40;99.90
32698;DHT22;19087;51.062;3.754;2023-03-01T06:32:42;1.40;99.90
32698;DHT22;19087;51.062;3.754;2023-03-01T06:35:09;1.40;99.90
32698;DHT22;19087;51.062;3.754;2023-03-01T06:37:35;1.60;99.90
32698;DHT22;19087;51.062;3.754;2023-03-01T06:40:03;1.80;99.90
32698;DHT22;19087;51.062;3.754;2023-03-01T06:42:41;1.70;99.90
32698;DHT22;19087;51.062;3.754;2023-03-01T06:45:08;1.80;99.90
32698;DHT22;19087;51.062;3.754;2023-03-01T06:47:35;1.70;99.90
32698;DHT22;19087;51.062;3.754;2023-03-01T06:50:01;1.70;99.90
32698;DHT22;19087;51.062;3.754;2023-03-01T06:52:27;1.80;99.90
32698;DHT22;19087;51.062;3.754;2023-03-01T06:54:53;1.90;99.90
32698;DHT22;19087;51.062;3.754;2023-03-01T06:57:19;1.90;99.90
32698;DHT22;19087;51.062;3.754;2023-03-01T06:59:47;1.80;99.90
32698;DHT22;19087;51.062;3.754;2023-03-01T07:02:14;1.90;99.90
32698;DHT22;19087;51.062;3.754;2023-03-01T07:04:40;1.90;99.90
32698;DHT22;19087;51.062;3.754;2023-03-01T07:07:12;1.90;99.90
32698;DHT22;19087;51.062;3.754;2023-03-01T07:09:38;2.00;99.90
32698;DHT22;19087;51.062;3.754;2023-03-01T07:12:03;2.10;99.90
32698;DHT22;19087;51.062;3.754;2023-03-01T07:14:29;1.80;99.90
32698;DHT22;19087;51.062;3.754;2023-03-01T07:16:55;1.90;99.90
32698;DHT22;19087;51.062;3.754;2023-03-01T07:19:22;2.10;99.90
32698;DHT22;19087;51.062;3.754;2023-03-01T07:21:49;2.10;99.90
32698;DHT22;19087;51.062;3.754;2023-03-01T07:24:14;2.40;99.90
32698;DHT22;19087;51.062;3.754;2023-03-01T07:26:40;3.00;99.90
32698;DHT22;19087;51.062;3.754;2023-03-01T07:29:09;3.50;99.90
32698;DHT22;19087;51.062;3.754;2023-03-01T07:31:35;4.20;99.90
32698;DHT22;19087;51.062;3.754;2023-03-01T07:34:01;4.80;99.90
32698;DHT22;19087;51.062;3.754;2023-03-01T07:36:28;5.40;99.90
32698;DHT22;19087;51.062;3.754;2023-03-01T07:38:54;5.70;99.90
32698;DHT22;19087;51.062;3.754;2023-03-01T07:41:22;6.20;99.90
32698;DHT22;19087;51.062;3.754;2023-03-01T07:43:47;6.40;99.90
32698;DHT22;19087;51.062;3.754;2023-03-01T07:46:13;6.80;99.90
32698;DHT22;19087;51.062;3.754;2023-03-01T07:48:40;7.20;99.90
32698;DHT22;19087;51.062;3.754;2023-03-01T07:51:06;7.40;99.90
32698;DHT22;19087;51.062;3.754;2023-03-01T07:53:32;7.70;99.90
32698;DHT22;19087;51.062;3.754;2023-03-01T07:56:04;8.00;99.90
32698;DHT22;19087;51.062;3.754;2023-03-01T07:58:37;7.90;99.90
32698;DHT22;19087;51.062;3.754;2023-03-01T08:01:06;8.10;99.80
32698;DHT22;19087;51.062;3.754;2023-03-01T08:03:33;8.40;99.60
32698;DHT22;19087;51.062;3.754;2023-03-01T08:06:00;8.70;98.90
32698;DHT22;19087;51.062;3.754;2023-03-01T08:08:26;8.50;98.70
32698;DHT22;19087;51.062;3.754;2023-03-01T08:10:52;8.40;98.30
32698;DHT22;19087;51.062;3.754;2023-03-01T08:13:17;8.30;98.60
32698;DHT22;19087;51.062;3.754;2023-03-01T08:15:48;7.80;98.10
32698;DHT22;19087;51.062;3.754;2023-03-01T08:18:17;7.50;98.90
32698;DHT22;19087;51.062;3.754;2023-03-01T08:20:44;6.90;99.60
32698;DHT22;19087;51.062;3.754;2023-03-01T08:23:09;6.60;99.90
32698;DHT22;19087;51.062;3.754;2023-03-01T08:25:38;6.30;99.90
32698;DHT22;19087;51.062;3.754;2023-03-01T08:28:04;6.20;99.90
32698;DHT22;19087;51.062;3.754;2023-03-01T08:30:31;5.90;99.90
32698;DHT22;19087;51.062;3.754;2023-03-01T08:32:57;5.60;99.90
32698;DHT22;19087;51.062;3.754;2023-03-01T08:35:28;5.20;99.90
32698;DHT22;19087;51.062;3.754;2023-03-01T08:37:55;5.00;99.90
32698;DHT22;19087;51.062;3.754;2023-03-01T08:40:21;4.90;99.90
32698;DHT22;19087;51.062;3.754;2023-03-01T08:42:46;4.80;99.90
32698;DHT22;19087;51.062;3.754;2023-03-01T08:45:12;4.90;99.90
32698;DHT22;19087;51.062;3.754;2023-03-01T08:47:39;4.90;99.90
32698;DHT22;19087;51.062;3.754;2023-03-01T08:50:06;4.70;99.90
32698;DHT22;19087;51.062;3.754;2023-03-01T08:52:33;4.70;99.90
32698;DHT22;19087;51.062;3.754;2023-03-01T08:54:59;4.60;99.90
32698;DHT22;19087;51.062;3.754;2023-03-01T08:57:28;4.70;99.90
32698;DHT22;19087;51.062;3.754;2023-03-01T08:59:57;4.60;99.90
32698;DHT22;19087;51.062;3.754;2023-03-01T09:02:22;4.80;99.90
32698;DHT22;19087;51.062;3.754;2023-03-01T09:04:48;4.70;99.90
32698;DHT22;19087;51.062;3.754;2023-03-01T09:07:14;4.30;99.90
32698;DHT22;19087;51.062;3.754;2023-03-01T09:09:39;4.40;99.90
32698;DHT22;19087;51.062;3.754;2023-03-01T09:12:06;4.50;99.90
32698;DHT22;19087;51.062;3.754;2023-03-01T09:14:36;4.70;99.90
32698;DHT22;19087;51.062;3.754;2023-03-01T09:17:04;4.90;99.90
32698;DHT22;19087;51.062;3.754;2023-03-01T09:19:31;4.90;99.90
32698;DHT22;19087;51.062;3.754;2023-03-01T09:21:57;4.90;99.90
32698;DHT22;19087;51.062;3.754;2023-03-01T09:24:24;5.00;99.90
32698;DHT22;19087;51.062;3.754;2023-03-01T09:26:54;5.00;99.90
32698;DHT22;19087;51.062;3.754;2023-03-01T09:29:22;5.00;99.90
32698;DHT22;19087;51.062;3.754;2023-03-01T09:31:48;5.10;99.90
32698;DHT22;19087;51.062;3.754;2023-03-01T09:34:15;5.00;99.90
32698;DHT22;19087;51.062;3.754;2023-03-01T09:36:44;5.20;99.90
32698;DHT22;19087;51.062;3.754;2023-03-01T09:39:10;5.00;99.90
32698;DHT22;19087;51.062;3.754;2023-03-01T09:46:48;5.50;99.90
32698;DHT22;19087;51.062;3.754;2023-03-01T09:49:23;5.30;99.90
32698;DHT22;19087;51.062;3.754;2023-03-01T09:52:21;5.40;99.90
32698;DHT22;19087;51.062;3.754;2023-03-01T09:54:51;5.50;99.90
32698;DHT22;19087;51.062;3.754;2023-03-01T10:02:46;5.60;99.90
32698;DHT22;19087;51.062;3.754;2023-03-01T10:08:47;5.60;99.90
32698;DHT22;19087;51.062;3.754;2023-03-01T10:11:28;5.80;99.90
32698;DHT22;19087;51.062;3.754;2023-03-01T10:13:59;6.00;99.90
32698;DHT22;19087;51.062;3.754;2023-03-01T10:16:55;5.90;99.90
32698;DHT22;19087;51.062;3.754;2023-03-01T10:19:30;6.10;99.80
32698;DHT22;19087;51.062;3.754;2023-03-01T10:22:16;6.10;99.70
32698;DHT22;19087;51.062;3.754;2023-03-01T10:24:45;6.40;99.50
32698;DHT22;19087;51.062;3.754;2023-03-01T10:30:29;6.40;98.50
32698;DHT22;19087;51.062;3.754;2023-03-01T10:32:52;6.50;98.10
32698;DHT22;19087;51.062;3.754;2023-03-01T10:35:22;6.50;98.00
32698;DHT22;19087;51.062;3.754;2023-03-01T10:38:26;6.70;97.70
32698;DHT22;19087;51.062;3.754;2023-03-01T10:41:07;6.50;97.80
32698;DHT22;19087;51.062;3.754;2023-03-01T10:43:56;6.30;98.10
32698;DHT22;19087;51.062;3.754;2023-03-01T10:46:34;6.30;98.10
32698;DHT22;19087;51.062;3.754;2023-03-01T10:49:13;6.30;98.20
32698;DHT22;19087;51.062;3.754;2023-03-01T10:51:40;6.40;98.10
32698;DHT22;19087;51.062;3.754;2023-03-01T10:56:52;6.80;97.30
32698;DHT22;19087;51.062;3.754;2023-03-01T11:02:27;6.80;96.70
32698;DHT22;19087;51.062;3.754;2023-03-01T11:05:00;6.70;97.10
32698;DHT22;19087;51.062;3.754;2023-03-01T11:07:27;6.80;97.10
32698;DHT22;19087;51.062;3.754;2023-03-01T11:09:55;6.90;97.00
32698;DHT22;19087;51.062;3.754;2023-03-01T11:12:23;7.10;96.00
32698;DHT22;19087;51.062;3.754;2023-03-01T11:14:54;7.10;95.80
32698;DHT22;19087;51.062;3.754;2023-03-01T11:17:28;7.20;95.60
32698;DHT22;19087;51.062;3.754;2023-03-01T11:22:49;7.30;95.30
32698;DHT22;19087;51.062;3.754;2023-03-01T11:25:17;7.20;95.30
32698;DHT22;19087;51.062;3.754;2023-03-01T11:27:45;7.20;95.60
32698;DHT22;19087;51.062;3.754;2023-03-01T11:30:35;7.30;95.60
32698;DHT22;19087;51.062;3.754;2023-03-01T11:38:39;7.60;94.80
32698;DHT22;19087;51.062;3.754;2023-03-01T11:41:21;7.30;95.20
32698;DHT22;19087;51.062;3.754;2023-03-01T11:44:24;7.30;95.40
32698;DHT22;19087;51.062;3.754;2023-03-01T11:47:33;7.60;95.20
32698;DHT22;19087;51.062;3.754;2023-03-01T11:50:09;7.80;95.00
32698;DHT22;19087;51.062;3.754;2023-03-01T11:55:37;8.10;93.60
32698;DHT22;19087;51.062;3.754;2023-03-01T11:58:32;8.10;93.60
32698;DHT22;19087;51.062;3.754;2023-03-01T12:15:23;8.10;94.00
32698;DHT22;19087;51.062;3.754;2023-03-01T12:26:21;8.20;93.50
32698;DHT22;19087;51.062;3.754;2023-03-01T12:29:10;8.10;93.50
32698;DHT22;19087;51.062;3.754;2023-03-01T12:46:06;8.70;92.30
32698;DHT22;19087;51.062;3.754;2023-03-01T12:51:08;9.00;91.90
32698;DHT22;19087;51.062;3.754;2023-03-01T12:53:57;9.20;91.70
32698;DHT22;19087;51.062;3.754;2023-03-01T12:56:37;9.10;91.20
32698;DHT22;19087;51.062;3.754;2023-03-01T13:02:02;8.80;91.60
32698;DHT22;19087;51.062;3.754;2023-03-01T13:04:49;8.30;92.10
32698;DHT22;19087;51.062;3.754;2023-03-01T13:07:53;8.30;91.70
32698;DHT22;19087;51.062;3.754;2023-03-01T13:10:23;8.40;92.00
32698;DHT22;19087;51.062;3.754;2023-03-01T13:13:01;8.70;91.80
32698;DHT22;19087;51.062;3.754;2023-03-01T13:15:35;8.90;91.00
32698;DHT22;19087;51.062;3.754;2023-03-01T13:20:46;9.20;90.90
32698;DHT22;19087;51.062;3.754;2023-03-01T13:31:05;9.20;90.90
32698;DHT22;19087;51.062;3.754;2023-03-01T13:36:01;9.20;91.10
32698;DHT22;19087;51.062;3.754;2023-03-01T13:38:48;9.00;91.20
32698;DHT22;19087;51.062;3.754;2023-03-01T13:46:53;8.70;91.30
32698;DHT22;19087;51.062;3.754;2023-03-01T13:49:29;8.80;91.10
32698;DHT22;19087;51.062;3.754;2023-03-01T13:52:03;9.00;91.30
32698;DHT22;19087;51.062;3.754;2023-03-01T13:54:33;9.30;91.30
32698;DHT22;19087;51.062;3.754;2023-03-01T13:57:00;9.40;91.50
32698;DHT22;19087;51.062;3.754;2023-03-01T13:59:26;9.30;91.80
32698;DHT22;19087;51.062;3.754;2023-03-01T14:02:00;9.40;91.40
32698;DHT22;19087;51.062;3.754;2023-03-01T14:04:32;9.50;90.80
32698;DHT22;19087;51.062;3.754;2023-03-01T14:07:19;9.60;90.90
32698;DHT22;19087;51.062;3.754;2023-03-01T14:09:48;9.60;91.00
32698;DHT22;19087;51.062;3.754;2023-03-01T14:12:43;9.40;91.30
32698;DHT22;19087;51.062;3.754;2023-03-01T14:18:02;9.20;92.00
32698;DHT22;19087;51.062;3.754;2023-03-01T14:20:41;9.00;92.30
32698;DHT22;19087;51.062;3.754;2023-03-01T14:23:13;9.10;92.10
32698;DHT22;19087;51.062;3.754;2023-03-01T14:25:49;8.90;92.30
32698;DHT22;19087;51.062;3.754;2023-03-01T14:28:28;8.90;92.30
32698;DHT22;19087;51.062;3.754;2023-03-01T14:30:56;9.00;92.30
32698;DHT22;19087;51.062;3.754;2023-03-01T14:38:35;9.00;92.10
32698;DHT22;19087;51.062;3.754;2023-03-01T14:43:44;8.90;92.40
32698;DHT22;19087;51.062;3.754;2023-03-01T14:46:43;9.00;91.70
32698;DHT22;19087;51.062;3.754;2023-03-01T14:49:22;9.20;91.90
32698;DHT22;19087;51.062;3.754;2023-03-01T14:54:41;9.10;92.10
32698;DHT22;19087;51.062;3.754;2023-03-01T14:57:23;9.20;91.80
32698;DHT22;19087;51.062;3.754;2023-03-01T14:59:52;9.10;92.10
32698;DHT22;19087;51.062;3.754;2023-03-01T15:02:23;9.10;92.10
32698;DHT22;19087;51.062;3.754;2023-03-01T15:04:52;9.10;92.20
32698;DHT22;19087;51.062;3.754;2023-03-01T15:07:23;9.00;92.40
32698;DHT22;19087;51.062;3.754;2023-03-01T15:09:55;9.00;92.50
32698;DHT22;19087;51.062;3.754;2023-03-01T15:12:35;9.10;92.30
32698;DHT22;19087;51.062;3.754;2023-03-01T15:15:21;9.10;92.40
32698;DHT22;19087;51.062;3.754;2023-03-01T15:17:55;8.90;92.40
32698;DHT22;19087;51.062;3.754;2023-03-01T15:20:24;8.70;92.50
32698;DHT22;19087;51.062;3.754;2023-03-01T15:22:52;8.70;92.30
32698;DHT22;19087;51.062;3.754;2023-03-01T15:25:21;8.80;92.00
32698;DHT22;19087;51.062;3.754;2023-03-01T15:27:52;8.80;91.80
32698;DHT22;19087;51.062;3.754;2023-03-01T15:30:27;9.00;91.80
32698;DHT22;19087;51.062;3.754;2023-03-01T15:33:18;9.20;91.50
32698;DHT22;19087;51.062;3.754;2023-03-01T15:35:48;9.20;91.20
32698;DHT22;19087;51.062;3.754;2023-03-01T15:41:06;8.80;91.50
32698;DHT22;19087;51.062;3.754;2023-03-01T15:43:46;8.80;91.70
32698;DHT22;19087;51.062;3.754;2023-03-01T15:46:31;8.70;92.00
32698;DHT22;19087;51.062;3.754;2023-03-01T15:49:00;8.80;91.80
32698;DHT22;19087;51.062;3.754;2023-03-01T15:51:36;8.70;91.90
32698;DHT22;19087;51.062;3.754;2023-03-01T15:54:18;8.70;92.20
32698;DHT22;19087;51.062;3.754;2023-03-01T15:56:44;8.60;92.30
32698;DHT22;19087;51.062;3.754;2023-03-01T15:59:11;8.60;92.30
32698;DHT22;19087;51.062;3.754;2023-03-01T16:01:40;8.50;92.50
32698;DHT22;19087;51.062;3.754;2023-03-01T16:04:13;8.60;92.80
32698;DHT22;19087;51.062;3.754;2023-03-01T16:06:46;8.50;92.90
32698;DHT22;19087;51.062;3.754;2023-03-01T16:09:22;8.70;92.80
32698;DHT22;19087;51.062;3.754;2023-03-01T16:11:48;8.70;92.60
32698;DHT22;19087;51.062;3.754;2023-03-01T16:14:14;8.70;92.50
32698;DHT22;19087;51.062;3.754;2023-03-01T16:16:42;8.70;92.50
32698;DHT22;19087;51.062;3.754;2023-03-01T16:19:08;8.70;92.50
32698;DHT22;19087;51.062;3.754;2023-03-01T16:21:37;8.40;92.80
32698;DHT22;19087;51.062;3.754;2023-03-01T16:24:03;8.40;93.10
32698;DHT22;19087;51.062;3.754;2023-03-01T16:26:29;8.40;92.90
32698;DHT22;19087;51.062;3.754;2023-03-01T16:28:55;8.50;92.70
32698;DHT22;19087;51.062;3.754;2023-03-01T16:31:22;8.60;92.60
32698;DHT22;19087;51.062;3.754;2023-03-01T16:33:48;8.50;92.60
32698;DHT22;19087;51.062;3.754;2023-03-01T16:36:19;8.30;92.90
32698;DHT22;19087;51.062;3.754;2023-03-01T16:38:45;8.40;92.80
32698;DHT22;19087;51.062;3.754;2023-03-01T16:41:13;8.40;92.60
32698;DHT22;19087;51.062;3.754;2023-03-01T16:43:39;8.30;92.60
32698;DHT22;19087;51.062;3.754;2023-03-01T16:46:24;8.20;92.50
32698;DHT22;19087;51.062;3.754;2023-03-01T16:48:52;8.20;92.80
32698;DHT22;19087;51.062;3.754;2023-03-01T16:51:18;8.30;92.80
32698;DHT22;19087;51.062;3.754;2023-03-01T16:53:44;8.20;92.80
32698;DHT22;19087;51.062;3.754;2023-03-01T16:56:11;8.00;93.00
32698;DHT22;19087;51.062;3.754;2023-03-01T16:58:38;8.00;93.40
32698;DHT22;19087;51.062;3.754;2023-03-01T17:03:37;7.80;93.40
32698;DHT22;19087;51.062;3.754;2023-03-01T17:06:05;7.70;93.40
32698;DHT22;19087;51.062;3.754;2023-03-01T17:08:31;7.60;93.50
32698;DHT22;19087;51.062;3.754;2023-03-01T17:11:09;7.50;93.80
32698;DHT22;19087;51.062;3.754;2023-03-01T17:13:36;7.60;93.80
32698;DHT22;19087;51.062;3.754;2023-03-01T17:16:03;7.50;93.70
32698;DHT22;19087;51.062;3.754;2023-03-01T17:18:29;7.40;93.80
32698;DHT22;19087;51.062;3.754;2023-03-01T17:20:55;7.40;93.80
32698;DHT22;19087;51.062;3.754;2023-03-01T17:23:23;7.40;93.30
32698;DHT22;19087;51.062;3.754;2023-03-01T17:25:52;7.30;93.30
32698;DHT22;19087;51.062;3.754;2023-03-01T17:28:18;7.20;93.40
32698;DHT22;19087;51.062;3.754;2023-03-01T17:30:44;7.20;93.40
32698;DHT22;19087;51.062;3.754;2023-03-01T17:33:12;7.20;93.30
32698;DHT22;19087;51.062;3.754;2023-03-01T17:35:38;7.30;93.20
32698;DHT22;19087;51.062;3.754;2023-03-01T17:38:05;7.20;93.30
32698;DHT22;19087;51.062;3.754;2023-03-01T17:40:31;7.30;93.50
32698;DHT22;19087;51.062;3.754;2023-03-01T17:42:57;7.10;93.60
32698;DHT22;19087;51.062;3.754;2023-03-01T17:45:23;7.00;93.80
32698;DHT22;19087;51.062;3.754;2023-03-01T17:47:49;7.10;94.00
32698;DHT22;19087;51.062;3.754;2023-03-01T17:50:15;7.00;94.00
32698;DHT22;19087;51.062;3.754;2023-03-01T17:52:41;7.00;94.20
32698;DHT22;19087;51.062;3.754;2023-03-01T17:55:08;7.00;94.40
32698;DHT22;19087;51.062;3.754;2023-03-01T17:57:39;6.80;94.60
32698;DHT22;19087;51.062;3.754;2023-03-01T18:00:08;6.70;94.60
32698;DHT22;19087;51.062;3.754;2023-03-01T18:02:35;6.60;94.70
32698;DHT22;19087;51.062;3.754;2023-03-01T18:05:01;6.60;94.90
32698;DHT22;19087;51.062;3.754;2023-03-01T18:07:28;6.60;95.00
32698;DHT22;19087;51.062;3.754;2023-03-01T18:09:54;6.60;95.00